ESNU

Details ICAO ESNU (UME)
Name Umea
Region Sweden
Timezone Europe/Stockholm (UTC+2.0)
Plans Departing 55
Arriving 68
Stats Elevation 24 ft / 7 m (AMSL)
Location 63.790814° 20.284786°
Runways 1
Magnetic Variation 8.051° E
Sunrise 2018-05-26 00:57:17 UTC / 2018-05-26 02:57:17 Local
Sunset 2018-05-26 20:17:23 UTC / 2018-05-26 22:17:23 Local
Advertisement - Login to hide

Runways

ID Width Length Bearing (true) Bearing (mag) Surface Threshold Offset Overrun Length
14 148 ft / 45 m 7,530 ft / 2,295 m 138.49° 130.44° Asphalt 0 ft / 0 m 0 ft / 0 m
32 148 ft / 45 m 7,530 ft / 2,295 m 318.52° 310.47° Asphalt 196 ft / 60 m 0 ft / 0 m

Approach Navaids

Runway Type Ident Frequency Range Bearing (true) Bearing (mag) Slope Elevation
14 Localiser NU 109.90 MHz 18 nm / 33 km 138.52° 130.47° - 24 ft / 7 m (AMSL)
14 Glidescope NU 109.90 MHz 10 nm / 19 km 138.50° 130.45° 3.00° 24 ft / 7 m (AMSL)
32 Localiser SNU 110.70 MHz 18 nm / 33 km 318.49° 310.44° - 24 ft / 7 m (AMSL)
32 Glidescope SNU 110.70 MHz 10 nm / 19 km 318.50° 310.45° 3.00° 24 ft / 7 m (AMSL)

Map

Weather


0- 5 10 15 20 25 30 35+ Temperature / ° C

Clouds and Precipitation
Forecast for 2018-05-25 18:00 UTC. Updated 6 hours ago

Ground ~20,000 ft ~40,000 ft Winds

METAR

ESNU 252250Z AUTO 00000KT 0500 R14/P1500N R32/P1500N BCFG NCD 07/06 Q1027

TAF

Not found

Frequencies

Tower 118.07 MHz TWR
Tower 119.80 MHz TWR
Warning: Do not use this data for real-world aviation or navigation. No guarantee of current accuracy is given.